sensor_id;sensor_type;location;lat;lon;timestamp;temperature;humidity
4687;DHT22;2357;47.316;-1.348;2022-10-16T00:01:13;15.50;99.90
4687;DHT22;2357;47.316;-1.348;2022-10-16T00:03:41;15.50;99.90
4687;DHT22;2357;47.316;-1.348;2022-10-16T00:06:07;15.50;99.90
4687;DHT22;2357;47.316;-1.348;2022-10-16T00:08:33;15.50;99.90
4687;DHT22;2357;47.316;-1.348;2022-10-16T00:11:04;15.50;99.90
4687;DHT22;2357;47.316;-1.348;2022-10-16T00:13:31;15.50;99.90
4687;DHT22;2357;47.316;-1.348;2022-10-16T00:15:58;15.50;99.90
4687;DHT22;2357;47.316;-1.348;2022-10-16T00:18:25;15.40;99.90
4687;DHT22;2357;47.316;-1.348;2022-10-16T00:20:51;15.50;99.90
4687;DHT22;2357;47.316;-1.348;2022-10-16T00:23:16;15.40;99.90
4687;DHT22;2357;47.316;-1.348;2022-10-16T00:25:42;15.40;99.90
4687;DHT22;2357;47.316;-1.348;2022-10-16T00:28:08;15.50;99.90
4687;DHT22;2357;47.316;-1.348;2022-10-16T00:30:33;15.50;99.90
4687;DHT22;2357;47.316;-1.348;2022-10-16T00:33:02;15.50;99.90
4687;DHT22;2357;47.316;-1.348;2022-10-16T00:35:28;15.40;99.90
4687;DHT22;2357;47.316;-1.348;2022-10-16T00:37:54;15.50;99.90
4687;DHT22;2357;47.316;-1.348;2022-10-16T00:40:20;15.40;99.90
4687;DHT22;2357;47.316;-1.348;2022-10-16T00:42:45;15.40;99.90
4687;DHT22;2357;47.316;-1.348;2022-10-16T00:45:11;15.40;99.90
4687;DHT22;2357;47.316;-1.348;2022-10-16T00:47:39;15.40;99.90
4687;DHT22;2357;47.316;-1.348;2022-10-16T00:52:47;15.40;99.90
4687;DHT22;2357;47.316;-1.348;2022-10-16T00:55:14;15.40;99.90
4687;DHT22;2357;47.316;-1.348;2022-10-16T00:57:39;15.40;99.90
4687;DHT22;2357;47.316;-1.348;2022-10-16T01:00:08;15.40;99.90
4687;DHT22;2357;47.316;-1.348;2022-10-16T01:02:34;15.40;99.90
4687;DHT22;2357;47.316;-1.348;2022-10-16T01:05:00;15.30;99.90
4687;DHT22;2357;47.316;-1.348;2022-10-16T01:10:48;15.30;99.90
4687;DHT22;2357;47.316;-1.348;2022-10-16T01:13:32;15.40;99.90
4687;DHT22;2357;47.316;-1.348;2022-10-16T01:16:40;15.40;99.90
4687;DHT22;2357;47.316;-1.348;2022-10-16T01:19:14;15.40;99.90
4687;DHT22;2357;47.316;-1.348;2022-10-16T01:21:44;15.40;99.90
4687;DHT22;2357;47.316;-1.348;2022-10-16T01:24:38;15.40;99.90
4687;DHT22;2357;47.316;-1.348;2022-10-16T01:27:26;15.40;99.90
4687;DHT22;2357;47.316;-1.348;2022-10-16T01:32:42;15.40;99.90
4687;DHT22;2357;47.316;-1.348;2022-10-16T01:35:14;15.40;99.90
4687;DHT22;2357;47.316;-1.348;2022-10-16T01:37:49;15.40;99.90
4687;DHT22;2357;47.316;-1.348;2022-10-16T01:40:19;15.40;99.90
4687;DHT22;2357;47.316;-1.348;2022-10-16T01:42:50;15.40;99.90
4687;DHT22;2357;47.316;-1.348;2022-10-16T01:45:19;15.40;99.90
4687;DHT22;2357;47.316;-1.348;2022-10-16T01:47:46;15.40;99.90
4687;DHT22;2357;47.316;-1.348;2022-10-16T01:50:15;15.40;99.90
4687;DHT22;2357;47.316;-1.348;2022-10-16T01:52:44;15.40;99.90
4687;DHT22;2357;47.316;-1.348;2022-10-16T01:55:13;15.40;99.90
4687;DHT22;2357;47.316;-1.348;2022-10-16T01:57:42;15.50;99.90
4687;DHT22;2357;47.316;-1.348;2022-10-16T02:00:11;15.40;99.90
4687;DHT22;2357;47.316;-1.348;2022-10-16T02:02:40;15.50;99.90
4687;DHT22;2357;47.316;-1.348;2022-10-16T02:05:23;15.50;99.90
4687;DHT22;2357;47.316;-1.348;2022-10-16T02:07:50;15.50;99.90
4687;DHT22;2357;47.316;-1.348;2022-10-16T02:10:16;15.50;99.90
4687;DHT22;2357;47.316;-1.348;2022-10-16T02:12:48;15.50;99.90
4687;DHT22;2357;47.316;-1.348;2022-10-16T02:15:15;15.50;99.90
4687;DHT22;2357;47.316;-1.348;2022-10-16T02:17:41;15.50;99.90
4687;DHT22;2357;47.316;-1.348;2022-10-16T02:20:07;15.50;99.90
4687;DHT22;2357;47.316;-1.348;2022-10-16T02:22:39;15.50;99.90
4687;DHT22;2357;47.316;-1.348;2022-10-16T02:25:19;15.50;99.90
4687;DHT22;2357;47.316;-1.348;2022-10-16T02:30:41;15.50;99.90
4687;DHT22;2357;47.316;-1.348;2022-10-16T02:33:10;15.60;99.90
4687;DHT22;2357;47.316;-1.348;2022-10-16T02:35:39;15.50;99.90
4687;DHT22;2357;47.316;-1.348;2022-10-16T02:38:05;15.50;99.90
4687;DHT22;2357;47.316;-1.348;2022-10-16T02:40:32;15.50;99.90
4687;DHT22;2357;47.316;-1.348;2022-10-16T02:42:57;15.50;99.90
4687;DHT22;2357;47.316;-1.348;2022-10-16T02:45:23;15.40;99.90
4687;DHT22;2357;47.316;-1.348;2022-10-16T02:47:49;15.40;99.90
4687;DHT22;2357;47.316;-1.348;2022-10-16T02:50:15;15.40;99.90
4687;DHT22;2357;47.316;-1.348;2022-10-16T02:52:41;15.40;99.90
4687;DHT22;2357;47.316;-1.348;2022-10-16T02:55:07;15.30;99.90
4687;DHT22;2357;47.316;-1.348;2022-10-16T02:57:33;15.30;99.90
4687;DHT22;2357;47.316;-1.348;2022-10-16T02:59:58;15.30;99.90
4687;DHT22;2357;47.316;-1.348;2022-10-16T03:02:24;15.40;99.90
4687;DHT22;2357;47.316;-1.348;2022-10-16T03:04:50;15.30;99.90
4687;DHT22;2357;47.316;-1.348;2022-10-16T03:07:15;15.40;99.90
4687;DHT22;2357;47.316;-1.348;2022-10-16T03:09:41;15.30;99.90
4687;DHT22;2357;47.316;-1.348;2022-10-16T03:12:07;15.30;99.90
4687;DHT22;2357;47.316;-1.348;2022-10-16T03:14:33;15.30;99.90
4687;DHT22;2357;47.316;-1.348;2022-10-16T03:16:58;15.30;99.90
4687;DHT22;2357;47.316;-1.348;2022-10-16T03:19:24;15.30;99.90
4687;DHT22;2357;47.316;-1.348;2022-10-16T03:21:50;15.30;99.90
4687;DHT22;2357;47.316;-1.348;2022-10-16T03:24:15;15.40;99.90
4687;DHT22;2357;47.316;-1.348;2022-10-16T03:26:41;15.30;99.90
4687;DHT22;2357;47.316;-1.348;2022-10-16T03:29:07;15.40;99.90
4687;DHT22;2357;47.316;-1.348;2022-10-16T03:31:33;15.40;99.90
4687;DHT22;2357;47.316;-1.348;2022-10-16T03:33:58;15.40;99.90
4687;DHT22;2357;47.316;-1.348;2022-10-16T03:36:24;15.40;99.90
4687;DHT22;2357;47.316;-1.348;2022-10-16T03:38:50;15.40;99.90
4687;DHT22;2357;47.316;-1.348;2022-10-16T03:41:15;15.40;99.90
4687;DHT22;2357;47.316;-1.348;2022-10-16T03:43:41;15.30;99.90
4687;DHT22;2357;47.316;-1.348;2022-10-16T03:46:06;15.40;99.90
4687;DHT22;2357;47.316;-1.348;2022-10-16T03:48:32;15.30;99.90
4687;DHT22;2357;47.316;-1.348;2022-10-16T03:50:58;15.30;99.90
4687;DHT22;2357;47.316;-1.348;2022-10-16T03:53:24;15.30;99.90
4687;DHT22;2357;47.316;-1.348;2022-10-16T03:55:50;15.40;99.90
4687;DHT22;2357;47.316;-1.348;2022-10-16T03:58:16;15.40;99.90
4687;DHT22;2357;47.316;-1.348;2022-10-16T04:00:43;15.40;99.90
4687;DHT22;2357;47.316;-1.348;2022-10-16T04:03:09;15.40;99.90
4687;DHT22;2357;47.316;-1.348;2022-10-16T04:05:34;15.40;99.90
4687;DHT22;2357;47.316;-1.348;2022-10-16T04:08:00;15.40;99.90
4687;DHT22;2357;47.316;-1.348;2022-10-16T04:10:26;15.40;99.90
4687;DHT22;2357;47.316;-1.348;2022-10-16T04:12:51;15.40;99.90
4687;DHT22;2357;47.316;-1.348;2022-10-16T04:15:17;15.40;99.90
4687;DHT22;2357;47.316;-1.348;2022-10-16T04:17:43;15.40;99.90
4687;DHT22;2357;47.316;-1.348;2022-10-16T04:20:08;15.40;99.90
4687;DHT22;2357;47.316;-1.348;2022-10-16T04:22:34;15.30;99.90
4687;DHT22;2357;47.316;-1.348;2022-10-16T04:25:00;15.30;99.90
4687;DHT22;2357;47.316;-1.348;2022-10-16T04:27:25;15.40;99.90
4687;DHT22;2357;47.316;-1.348;2022-10-16T04:29:51;15.30;99.90
4687;DHT22;2357;47.316;-1.348;2022-10-16T04:32:16;15.30;99.90
4687;DHT22;2357;47.316;-1.348;2022-10-16T04:34:42;15.30;99.90
4687;DHT22;2357;47.316;-1.348;2022-10-16T04:37:08;15.30;99.90
4687;DHT22;2357;47.316;-1.348;2022-10-16T04:39:33;15.30;99.90
4687;DHT22;2357;47.316;-1.348;2022-10-16T04:41:59;15.30;99.90
4687;DHT22;2357;47.316;-1.348;2022-10-16T04:44:25;15.30;99.90
4687;DHT22;2357;47.316;-1.348;2022-10-16T04:46:51;15.30;99.90
4687;DHT22;2357;47.316;-1.348;2022-10-16T04:49:17;15.30;99.90
4687;DHT22;2357;47.316;-1.348;2022-10-16T04:51:42;15.30;99.90
4687;DHT22;2357;47.316;-1.348;2022-10-16T04:54:09;15.30;99.90
4687;DHT22;2357;47.316;-1.348;2022-10-16T04:56:35;15.30;99.90
4687;DHT22;2357;47.316;-1.348;2022-10-16T04:59:08;15.30;99.90
4687;DHT22;2357;47.316;-1.348;2022-10-16T05:01:34;15.30;99.90
4687;DHT22;2357;47.316;-1.348;2022-10-16T05:04:00;15.30;99.90
4687;DHT22;2357;47.316;-1.348;2022-10-16T05:06:25;15.30;99.90
4687;DHT22;2357;47.316;-1.348;2022-10-16T05:08:51;15.30;99.90
4687;DHT22;2357;47.316;-1.348;2022-10-16T05:11:17;15.20;99.90
4687;DHT22;2357;47.316;-1.348;2022-10-16T05:13:42;15.20;99.90
4687;DHT22;2357;47.316;-1.348;2022-10-16T05:16:08;15.20;99.90
4687;DHT22;2357;47.316;-1.348;2022-10-16T05:18:33;15.20;99.90
4687;DHT22;2357;47.316;-1.348;2022-10-16T05:20:59;15.20;99.90
4687;DHT22;2357;47.316;-1.348;2022-10-16T05:23:24;15.20;99.90
4687;DHT22;2357;47.316;-1.348;2022-10-16T05:25:57;15.20;99.90
4687;DHT22;2357;47.316;-1.348;2022-10-16T05:28:32;15.20;99.90
4687;DHT22;2357;47.316;-1.348;2022-10-16T05:30:58;15.30;99.90
4687;DHT22;2357;47.316;-1.348;2022-10-16T05:33:25;15.20;99.90
4687;DHT22;2357;47.316;-1.348;2022-10-16T05:35:51;15.30;99.90
4687;DHT22;2357;47.316;-1.348;2022-10-16T05:38:17;15.20;99.90
4687;DHT22;2357;47.316;-1.348;2022-10-16T05:40:44;15.20;99.90
4687;DHT22;2357;47.316;-1.348;2022-10-16T05:43:15;15.30;99.90
4687;DHT22;2357;47.316;-1.348;2022-10-16T05:45:41;15.30;99.90
4687;DHT22;2357;47.316;-1.348;2022-10-16T05:48:06;15.30;99.90
4687;DHT22;2357;47.316;-1.348;2022-10-16T05:50:32;15.30;99.90
4687;DHT22;2357;47.316;-1.348;2022-10-16T05:52:57;15.30;99.90
4687;DHT22;2357;47.316;-1.348;2022-10-16T05:55:23;15.30;99.90
4687;DHT22;2357;47.316;-1.348;2022-10-16T05:57:49;15.30;99.90
4687;DHT22;2357;47.316;-1.348;2022-10-16T06:00:14;15.30;99.90
4687;DHT22;2357;47.316;-1.348;2022-10-16T06:02:40;15.30;99.90
4687;DHT22;2357;47.316;-1.348;2022-10-16T06:05:06;15.30;99.90
4687;DHT22;2357;47.316;-1.348;2022-10-16T06:07:34;15.30;99.90
4687;DHT22;2357;47.316;-1.348;2022-10-16T06:10:00;15.30;99.90
4687;DHT22;2357;47.316;-1.348;2022-10-16T06:12:26;15.30;99.90
4687;DHT22;2357;47.316;-1.348;2022-10-16T06:14:52;15.30;99.90
4687;DHT22;2357;47.316;-1.348;2022-10-16T06:17:18;15.30;99.90
4687;DHT22;2357;47.316;-1.348;2022-10-16T06:19:43;15.30;99.90
4687;DHT22;2357;47.316;-1.348;2022-10-16T06:22:09;15.30;99.90
4687;DHT22;2357;47.316;-1.348;2022-10-16T06:24:35;15.30;99.90
4687;DHT22;2357;47.316;-1.348;2022-10-16T06:27:00;15.30;99.90
4687;DHT22;2357;47.316;-1.348;2022-10-16T06:29:26;15.30;99.90
4687;DHT22;2357;47.316;-1.348;2022-10-16T06:31:51;15.20;99.90
4687;DHT22;2357;47.316;-1.348;2022-10-16T06:34:18;15.20;99.90
4687;DHT22;2357;47.316;-1.348;2022-10-16T06:36:43;15.20;99.90
4687;DHT22;2357;47.316;-1.348;2022-10-16T06:39:09;15.20;99.90
4687;DHT22;2357;47.316;-1.348;2022-10-16T06:41:35;15.20;99.90
4687;DHT22;2357;47.316;-1.348;2022-10-16T06:44:01;15.20;99.90
4687;DHT22;2357;47.316;-1.348;2022-10-16T06:46:27;15.20;99.90
4687;DHT22;2357;47.316;-1.348;2022-10-16T06:48:53;15.20;99.90
4687;DHT22;2357;47.316;-1.348;2022-10-16T06:51:22;15.20;99.90
4687;DHT22;2357;47.316;-1.348;2022-10-16T06:53:50;15.30;99.90
4687;DHT22;2357;47.316;-1.348;2022-10-16T06:56:19;15.30;99.90
4687;DHT22;2357;47.316;-1.348;2022-10-16T06:58:45;15.30;99.90
4687;DHT22;2357;47.316;-1.348;2022-10-16T07:01:12;15.30;99.90
4687;DHT22;2357;47.316;-1.348;2022-10-16T07:03:39;15.40;99.90
4687;DHT22;2357;47.316;-1.348;2022-10-16T07:06:06;15.40;99.90
4687;DHT22;2357;47.316;-1.348;2022-10-16T07:08:34;15.40;99.90
4687;DHT22;2357;47.316;-1.348;2022-10-16T07:11:01;15.40;99.90
4687;DHT22;2357;47.316;-1.348;2022-10-16T07:13:27;15.40;99.90
4687;DHT22;2357;47.316;-1.348;2022-10-16T07:15:52;15.40;99.90
4687;DHT22;2357;47.316;-1.348;2022-10-16T07:18:18;15.50;99.90
4687;DHT22;2357;47.316;-1.348;2022-10-16T07:20:44;15.40;99.90
4687;DHT22;2357;47.316;-1.348;2022-10-16T07:23:09;15.50;99.90
4687;DHT22;2357;47.316;-1.348;2022-10-16T07:25:35;15.50;99.90
4687;DHT22;2357;47.316;-1.348;2022-10-16T07:28:00;15.50;99.90
4687;DHT22;2357;47.316;-1.348;2022-10-16T07:30:26;15.60;99.90
4687;DHT22;2357;47.316;-1.348;2022-10-16T07:32:52;15.60;99.90
4687;DHT22;2357;47.316;-1.348;2022-10-16T07:35:17;15.60;99.90
4687;DHT22;2357;47.316;-1.348;2022-10-16T07:37:46;15.60;99.90
4687;DHT22;2357;47.316;-1.348;2022-10-16T07:40:12;15.70;99.90
4687;DHT22;2357;47.316;-1.348;2022-10-16T07:42:38;15.60;99.90
4687;DHT22;2357;47.316;-1.348;2022-10-16T07:45:04;15.60;99.90
4687;DHT22;2357;47.316;-1.348;2022-10-16T07:47:30;15.70;99.90
4687;DHT22;2357;47.316;-1.348;2022-10-16T07:49:55;15.70;99.90
4687;DHT22;2357;47.316;-1.348;2022-10-16T07:52:21;15.80;99.90
4687;DHT22;2357;47.316;-1.348;2022-10-16T07:54:47;15.90;99.90
4687;DHT22;2357;47.316;-1.348;2022-10-16T07:57:12;16.00;99.90
4687;DHT22;2357;47.316;-1.348;2022-10-16T07:59:45;16.00;99.90
4687;DHT22;2357;47.316;-1.348;2022-10-16T08:02:10;16.10;99.90
4687;DHT22;2357;47.316;-1.348;2022-10-16T08:04:36;16.10;99.90
4687;DHT22;2357;47.316;-1.348;2022-10-16T08:07:01;16.10;99.90
4687;DHT22;2357;47.316;-1.348;2022-10-16T08:09:27;16.20;99.90
4687;DHT22;2357;47.316;-1.348;2022-10-16T08:11:53;16.20;99.90
4687;DHT22;2357;47.316;-1.348;2022-10-16T08:14:18;16.30;99.90
4687;DHT22;2357;47.316;-1.348;2022-10-16T08:16:44;16.30;99.90
4687;DHT22;2357;47.316;-1.348;2022-10-16T08:19:09;16.30;99.90
4687;DHT22;2357;47.316;-1.348;2022-10-16T08:21:35;16.40;99.90
4687;DHT22;2357;47.316;-1.348;2022-10-16T08:24:01;16.40;99.90
4687;DHT22;2357;47.316;-1.348;2022-10-16T08:26:26;16.50;99.90
4687;DHT22;2357;47.316;-1.348;2022-10-16T08:28:52;16.50;99.90
4687;DHT22;2357;47.316;-1.348;2022-10-16T08:31:18;16.50;99.90
4687;DHT22;2357;47.316;-1.348;2022-10-16T08:33:44;16.50;99.90
4687;DHT22;2357;47.316;-1.348;2022-10-16T08:36:12;16.50;99.90
4687;DHT22;2357;47.316;-1.348;2022-10-16T08:38:38;16.50;99.90
4687;DHT22;2357;47.316;-1.348;2022-10-16T08:44:03;16.60;99.90
4687;DHT22;2357;47.316;-1.348;2022-10-16T08:49:17;16.90;99.90
4687;DHT22;2357;47.316;-1.348;2022-10-16T08:51:43;17.00;99.90
4687;DHT22;2357;47.316;-1.348;2022-10-16T08:56:54;17.10;99.90
4687;DHT22;2357;47.316;-1.348;2022-10-16T08:59:21;17.00;99.90
4687;DHT22;2357;47.316;-1.348;2022-10-16T09:01:50;17.00;99.90
4687;DHT22;2357;47.316;-1.348;2022-10-16T09:10:23;16.90;99.90
4687;DHT22;2357;47.316;-1.348;2022-10-16T09:21:29;16.90;99.90
4687;DHT22;2357;47.316;-1.348;2022-10-16T09:23:59;16.80;99.90
4687;DHT22;2357;47.316;-1.348;2022-10-16T09:26:25;16.80;99.90
4687;DHT22;2357;47.316;-1.348;2022-10-16T09:28:53;16.90;99.90
4687;DHT22;2357;47.316;-1.348;2022-10-16T09:31:20;16.90;99.90
4687;DHT22;2357;47.316;-1.348;2022-10-16T09:33:52;16.90;99.90
4687;DHT22;2357;47.316;-1.348;2022-10-16T09:36:19;17.10;99.90
4687;DHT22;2357;47.316;-1.348;2022-10-16T09:38:45;17.20;99.90
4687;DHT22;2357;47.316;-1.348;2022-10-16T09:41:21;17.10;99.90
4687;DHT22;2357;47.316;-1.348;2022-10-16T09:43:53;17.20;99.90
4687;DHT22;2357;47.316;-1.348;2022-10-16T09:46:31;17.20;99.90
4687;DHT22;2357;47.316;-1.348;2022-10-16T09:49:00;17.20;99.90
4687;DHT22;2357;47.316;-1.348;2022-10-16T09:51:34;17.30;99.90
4687;DHT22;2357;47.316;-1.348;2022-10-16T09:56:36;17.40;99.90
4687;DHT22;2357;47.316;-1.348;2022-10-16T09:59:16;17.60;99.90
4687;DHT22;2357;47.316;-1.348;2022-10-16T10:01:45;17.80;99.90
4687;DHT22;2357;47.316;-1.348;2022-10-16T10:04:12;18.00;99.90
4687;DHT22;2357;47.316;-1.348;2022-10-16T10:06:44;18.30;99.90
4687;DHT22;2357;47.316;-1.348;2022-10-16T10:11:59;18.40;99.90
4687;DHT22;2357;47.316;-1.348;2022-10-16T10:14:38;18.60;99.90
4687;DHT22;2357;47.316;-1.348;2022-10-16T10:19:46;18.60;99.90
4687;DHT22;2357;47.316;-1.348;2022-10-16T10:22:43;18.60;99.90
4687;DHT22;2357;47.316;-1.348;2022-10-16T10:27:43;18.60;99.90
4687;DHT22;2357;47.316;-1.348;2022-10-16T10:30:55;18.70;99.90
4687;DHT22;2357;47.316;-1.348;2022-10-16T10:46:51;19.40;99.90
4687;DHT22;2357;47.316;-1.348;2022-10-16T11:08:33;20.40;99.90
4687;DHT22;2357;47.316;-1.348;2022-10-16T11:11:05;20.50;99.90
4687;DHT22;2357;47.316;-1.348;2022-10-16T11:16:39;20.40;99.90
4687;DHT22;2357;47.316;-1.348;2022-10-16T11:19:22;20.40;99.90
4687;DHT22;2357;47.316;-1.348;2022-10-16T11:22:05;20.50;99.90
4687;DHT22;2357;47.316;-1.348;2022-10-16T11:24:42;20.50;99.90
4687;DHT22;2357;47.316;-1.348;2022-10-16T11:27:15;20.60;99.90
4687;DHT22;2357;47.316;-1.348;2022-10-16T11:29:57;20.70;99.90
4687;DHT22;2357;47.316;-1.348;2022-10-16T11:32:35;20.70;99.90
4687;DHT22;2357;47.316;-1.348;2022-10-16T11:36:06;20.80;99.90
4687;DHT22;2357;47.316;-1.348;2022-10-16T11:41:03;20.90;99.90
4687;DHT22;2357;47.316;-1.348;2022-10-16T11:43:37;20.90;99.90
4687;DHT22;2357;47.316;-1.348;2022-10-16T11:46:24;21.00;99.90
4687;DHT22;2357;47.316;-1.348;2022-10-16T11:49:14;21.10;99.90
4687;DHT22;2357;47.316;-1.348;2022-10-16T11:51:55;21.30;99.90
4687;DHT22;2357;47.316;-1.348;2022-10-16T11:54:39;21.40;99.90
4687;DHT22;2357;47.316;-1.348;2022-10-16T11:57:18;21.50;99.90
4687;DHT22;2357;47.316;-1.348;2022-10-16T11:59:58;21.40;99.90
4687;DHT22;2357;47.316;-1.348;2022-10-16T12:02:30;21.40;99.90
4687;DHT22;2357;47.316;-1.348;2022-10-16T12:05:06;21.50;99.90
4687;DHT22;2357;47.316;-1.348;2022-10-16T12:07:39;21.60;99.90
4687;DHT22;2357;47.316;-1.348;2022-10-16T12:10:25;21.70;99.90
4687;DHT22;2357;47.316;-1.348;2022-10-16T12:12:51;21.70;99.90
4687;DHT22;2357;47.316;-1.348;2022-10-16T12:15:24;21.90;99.90
4687;DHT22;2357;47.316;-1.348;2022-10-16T12:17:50;22.00;99.90
4687;DHT22;2357;47.316;-1.348;2022-10-16T12:22:51;21.80;99.90
4687;DHT22;2357;47.316;-1.348;2022-10-16T12:28:01;21.80;99.90
4687;DHT22;2357;47.316;-1.348;2022-10-16T12:30:30;21.90;99.90
4687;DHT22;2357;47.316;-1.348;2022-10-16T12:33:02;22.00;99.90
4687;DHT22;2357;47.316;-1.348;2022-10-16T12:35:34;22.20;99.90
4687;DHT22;2357;47.316;-1.348;2022-10-16T12:38:08;22.30;99.90
4687;DHT22;2357;47.316;-1.348;2022-10-16T12:40:38;22.20;99.90
4687;DHT22;2357;47.316;-1.348;2022-10-16T12:43:25;22.30;99.90
4687;DHT22;2357;47.316;-1.348;2022-10-16T12:48:43;22.40;99.90
4687;DHT22;2357;47.316;-1.348;2022-10-16T12:54:14;22.50;99.90
4687;DHT22;2357;47.316;-1.348;2022-10-16T13:07:40;23.40;99.90
4687;DHT22;2357;47.316;-1.348;2022-10-16T13:15:51;23.30;99.90
4687;DHT22;2357;47.316;-1.348;2022-10-16T13:18:42;23.50;99.90
4687;DHT22;2357;47.316;-1.348;2022-10-16T13:26:45;23.80;99.90
4687;DHT22;2357;47.316;-1.348;2022-10-16T13:29:13;23.90;99.90
4687;DHT22;2357;47.316;-1.348;2022-10-16T13:31:39;23.70;99.90
4687;DHT22;2357;47.316;-1.348;2022-10-16T13:34:06;23.70;99.90
4687;DHT22;2357;47.316;-1.348;2022-10-16T13:36:46;23.90;99.90
4687;DHT22;2357;47.316;-1.348;2022-10-16T13:39:13;23.90;99.90
4687;DHT22;2357;47.316;-1.348;2022-10-16T13:41:39;23.90;99.90
4687;DHT22;2357;47.316;-1.348;2022-10-16T13:44:15;23.80;99.90
4687;DHT22;2357;47.316;-1.348;2022-10-16T13:46:42;23.60;99.90
4687;DHT22;2357;47.316;-1.348;2022-10-16T13:49:17;23.70;99.90
4687;DHT22;2357;47.316;-1.348;2022-10-16T13:51:59;23.80;99.90
4687;DHT22;2357;47.316;-1.348;2022-10-16T13:54:26;24.00;99.90
4687;DHT22;2357;47.316;-1.348;2022-10-16T13:56:54;24.30;99.90
4687;DHT22;2357;47.316;-1.348;2022-10-16T13:59:26;24.40;99.90
4687;DHT22;2357;47.316;-1.348;2022-10-16T14:01:55;24.20;99.90
4687;DHT22;2357;47.316;-1.348;2022-10-16T14:04:23;24.20;99.90
4687;DHT22;2357;47.316;-1.348;2022-10-16T14:06:50;24.20;99.90
4687;DHT22;2357;47.316;-1.348;2022-10-16T14:11:59;24.50;99.90
4687;DHT22;2357;47.316;-1.348;2022-10-16T14:14:27;24.20;99.90
4687;DHT22;2357;47.316;-1.348;2022-10-16T14:16:57;24.40;99.90
4687;DHT22;2357;47.316;-1.348;2022-10-16T14:19:26;24.50;99.90
4687;DHT22;2357;47.316;-1.348;2022-10-16T14:21:53;24.50;99.90
4687;DHT22;2357;47.316;-1.348;2022-10-16T14:26:57;24.20;99.90
4687;DHT22;2357;47.316;-1.348;2022-10-16T14:29:24;24.30;99.90
4687;DHT22;2357;47.316;-1.348;2022-10-16T14:32:04;24.10;99.90
4687;DHT22;2357;47.316;-1.348;2022-10-16T14:34:39;23.80;99.90
4687;DHT22;2357;47.316;-1.348;2022-10-16T14:37:07;23.80;99.90
4687;DHT22;2357;47.316;-1.348;2022-10-16T14:39:34;23.60;99.90
4687;DHT22;2357;47.316;-1.348;2022-10-16T14:42:00;23.60;99.90
4687;DHT22;2357;47.316;-1.348;2022-10-16T14:44:32;23.60;99.90
4687;DHT22;2357;47.316;-1.348;2022-10-16T14:47:07;23.60;99.90
4687;DHT22;2357;47.316;-1.348;2022-10-16T14:49:33;23.90;99.90
4687;DHT22;2357;47.316;-1.348;2022-10-16T14:51:59;24.00;99.90
4687;DHT22;2357;47.316;-1.348;2022-10-16T14:54:25;24.00;99.90
4687;DHT22;2357;47.316;-1.348;2022-10-16T14:56:56;23.70;99.90
4687;DHT22;2357;47.316;-1.348;2022-10-16T14:59:36;23.50;99.90
4687;DHT22;2357;47.316;-1.348;2022-10-16T15:02:27;23.40;99.90
4687;DHT22;2357;47.316;-1.348;2022-10-16T15:04:53;23.90;99.90
4687;DHT22;2357;47.316;-1.348;2022-10-16T15:07:19;27.00;99.90
4687;DHT22;2357;47.316;-1.348;2022-10-16T15:09:45;29.70;99.90
4687;DHT22;2357;47.316;-1.348;2022-10-16T15:12:11;31.30;99.90
4687;DHT22;2357;47.316;-1.348;2022-10-16T15:14:37;30.50;99.90
4687;DHT22;2357;47.316;-1.348;2022-10-16T15:17:02;28.80;99.90
4687;DHT22;2357;47.316;-1.348;2022-10-16T15:19:28;27.80;99.90
4687;DHT22;2357;47.316;-1.348;2022-10-16T15:21:54;27.80;99.90
4687;DHT22;2357;47.316;-1.348;2022-10-16T15:24:19;27.00;99.90
4687;DHT22;2357;47.316;-1.348;2022-10-16T15:26:45;25.70;99.90
4687;DHT22;2357;47.316;-1.348;2022-10-16T15:29:15;24.60;99.90
4687;DHT22;2357;47.316;-1.348;2022-10-16T15:31:41;23.90;99.90
4687;DHT22;2357;47.316;-1.348;2022-10-16T15:34:12;23.40;99.90
4687;DHT22;2357;47.316;-1.348;2022-10-16T15:36:38;23.00;99.90
4687;DHT22;2357;47.316;-1.348;2022-10-16T15:39:10;22.80;99.90
4687;DHT22;2357;47.316;-1.348;2022-10-16T15:41:37;22.70;99.90
4687;DHT22;2357;47.316;-1.348;2022-10-16T15:44:02;22.60;99.90
4687;DHT22;2357;47.316;-1.348;2022-10-16T15:46:29;22.50;99.90
4687;DHT22;2357;47.316;-1.348;2022-10-16T15:48:57;22.40;99.90
4687;DHT22;2357;47.316;-1.348;2022-10-16T15:51:24;22.30;99.90
4687;DHT22;2357;47.316;-1.348;2022-10-16T15:53:50;22.30;99.90
4687;DHT22;2357;47.316;-1.348;2022-10-16T15:56:17;22.20;99.90
4687;DHT22;2357;47.316;-1.348;2022-10-16T15:58:43;22.10;99.90
4687;DHT22;2357;47.316;-1.348;2022-10-16T16:01:09;22.10;99.90
4687;DHT22;2357;47.316;-1.348;2022-10-16T16:03:37;22.00;99.90
4687;DHT22;2357;47.316;-1.348;2022-10-16T16:06:07;22.00;99.90
4687;DHT22;2357;47.316;-1.348;2022-10-16T16:08:33;22.00;99.90
4687;DHT22;2357;47.316;-1.348;2022-10-16T16:11:01;21.90;99.90
4687;DHT22;2357;47.316;-1.348;2022-10-16T16:13:27;21.90;99.90
4687;DHT22;2357;47.316;-1.348;2022-10-16T16:15:53;21.80;99.90
4687;DHT22;2357;47.316;-1.348;2022-10-16T16:18:18;21.80;99.90
4687;DHT22;2357;47.316;-1.348;2022-10-16T16:20:44;21.80;99.90
4687;DHT22;2357;47.316;-1.348;2022-10-16T16:23:10;21.70;99.90
4687;DHT22;2357;47.316;-1.348;2022-10-16T16:25:36;21.70;99.90
4687;DHT22;2357;47.316;-1.348;2022-10-16T16:28:01;21.70;99.90
4687;DHT22;2357;47.316;-1.348;2022-10-16T16:30:27;21.60;99.90
4687;DHT22;2357;47.316;-1.348;2022-10-16T16:32:52;21.60;99.90
4687;DHT22;2357;47.316;-1.348;2022-10-16T16:35:18;21.50;99.90
4687;DHT22;2357;47.316;-1.348;2022-10-16T16:37:44;21.40;99.90
4687;DHT22;2357;47.316;-1.348;2022-10-16T16:40:09;21.40;99.90
4687;DHT22;2357;47.316;-1.348;2022-10-16T16:42:35;21.30;99.90
4687;DHT22;2357;47.316;-1.348;2022-10-16T16:45:01;21.20;99.90
4687;DHT22;2357;47.316;-1.348;2022-10-16T16:47:26;21.10;99.90
4687;DHT22;2357;47.316;-1.348;2022-10-16T16:49:52;21.10;99.90
4687;DHT22;2357;47.316;-1.348;2022-10-16T16:52:17;21.00;99.90
4687;DHT22;2357;47.316;-1.348;2022-10-16T16:54:43;21.00;99.90
4687;DHT22;2357;47.316;-1.348;2022-10-16T16:57:17;21.00;99.90
4687;DHT22;2357;47.316;-1.348;2022-10-16T16:59:42;20.80;99.90
4687;DHT22;2357;47.316;-1.348;2022-10-16T17:02:08;20.80;99.90
4687;DHT22;2357;47.316;-1.348;2022-10-16T17:04:34;20.80;99.90
4687;DHT22;2357;47.316;-1.348;2022-10-16T17:07:00;20.80;99.90
4687;DHT22;2357;47.316;-1.348;2022-10-16T17:09:26;20.70;99.90
4687;DHT22;2357;47.316;-1.348;2022-10-16T17:11:51;20.70;99.90
4687;DHT22;2357;47.316;-1.348;2022-10-16T17:14:17;20.60;99.90
4687;DHT22;2357;47.316;-1.348;2022-10-16T17:16:43;20.60;99.90
4687;DHT22;2357;47.316;-1.348;2022-10-16T17:19:14;20.60;99.90
4687;DHT22;2357;47.316;-1.348;2022-10-16T17:21:41;20.50;99.90
4687;DHT22;2357;47.316;-1.348;2022-10-16T17:24:07;20.50;99.90
4687;DHT22;2357;47.316;-1.348;2022-10-16T17:26:33;20.50;99.90
4687;DHT22;2357;47.316;-1.348;2022-10-16T17:29:03;20.40;99.90
4687;DHT22;2357;47.316;-1.348;2022-10-16T17:31:32;20.40;99.90
4687;DHT22;2357;47.316;-1.348;2022-10-16T17:33:59;20.40;99.90
4687;DHT22;2357;47.316;-1.348;2022-10-16T17:36:25;20.30;99.90
4687;DHT22;2357;47.316;-1.348;2022-10-16T17:38:54;20.30;99.90
4687;DHT22;2357;47.316;-1.348;2022-10-16T17:41:22;20.30;99.90
4687;DHT22;2357;47.316;-1.348;2022-10-16T17:43:49;20.20;99.90
4687;DHT22;2357;47.316;-1.348;2022-10-16T17:46:16;20.10;99.90
4687;DHT22;2357;47.316;-1.348;2022-10-16T17:48:45;20.00;99.90
4687;DHT22;2357;47.316;-1.348;2022-10-16T17:51:12;20.00;99.90
4687;DHT22;2357;47.316;-1.348;2022-10-16T17:53:39;19.90;99.90
4687;DHT22;2357;47.316;-1.348;2022-10-16T17:56:06;19.80;99.90